Time;durP1;ratioP1;P1;durP2;ratioP2;P2;SDS_P1;SDS_P2;PMS_P1;PMS_P2;Temp;Humidity;BMP_temperature;BMP_pressure;BME280_temperature;BME280_humidity;BME280_pressure;Samples;Min_cycle;Max_cycle;Signal;HPM_P1;HPM_P2
2022/06/16 00:00:35;;;;;;;2.97;1.77;;;;;;;19.78;83.11;100099.94;5009851;28;20429;-84
2022/06/16 00:03:03;;;;;;;1.73;1.30;;;;;;;19.73;83.90;100110.84;5008147;28;20071;-84
2022/06/16 00:05:34;;;;;;;2.67;1.40;;;;;;;19.73;84.09;100131.38;5009766;28;20036;-84
2022/06/16 00:08:00;;;;;;;1.95;1.52;;;;;;;19.83;83.74;100127.34;5010405;28;20029;-83
2022/06/16 00:10:25;;;;;;;2.58;1.80;;;;;;;19.64;83.84;100111.25;5010270;28;20034;-84
2022/06/16 00:12:51;;;;;;;4.10;3.22;;;;;;;19.57;84.86;100133.88;5010430;28;20415;-84
2022/06/16 00:15:20;;;;;;;1.77;1.27;;;;;;;19.39;85.30;100108.84;4991243;28;20563;-84
2022/06/16 00:17:46;;;;;;;2.70;1.70;;;;;;;19.50;85.64;100131.47;5010402;28;20099;-84
2022/06/16 00:20:12;;;;;;;1.75;1.33;;;;;;;19.38;86.30;100128.50;5009554;28;20034;-83
2022/06/16 00:22:38;;;;;;;2.90;1.58;;;;;;;19.26;86.82;100108.50;5009265;28;20121;-83
2022/06/16 00:25:05;;;;;;;2.40;1.67;;;;;;;19.41;86.68;100123.84;5008019;28;20144;-84
2022/06/16 00:27:31;;;;;;;3.10;1.58;;;;;;;19.22;86.58;100096.22;5009552;28;20188;-83
2022/06/16 00:29:57;;;;;;;2.90;2.13;;;;;;;19.45;86.40;100130.81;5009647;28;20778;-83
2022/06/16 00:32:23;;;;;;;3.80;2.83;;;;;;;19.44;85.87;100122.88;5009371;28;20504;-83
2022/06/16 00:34:48;;;;;;;2.15;1.33;;;;;;;19.38;86.61;100123.13;4987208;28;20148;-83
2022/06/16 00:37:14;;;;;;;2.17;1.27;;;;;;;19.26;86.61;100100.47;4989968;28;20035;-83
2022/06/16 00:39:40;;;;;;;2.53;1.70;;;;;;;19.18;88.48;100116.00;4990363;28;20133;-83
2022/06/16 00:42:17;;;;;;;2.58;1.80;;;;;;;19.22;89.04;100112.25;4988914;28;20583;-83
2022/06/16 00:44:44;;;;;;;3.03;1.80;;;;;;;19.08;88.81;100102.19;4989471;28;20034;-83
2022/06/16 00:47:10;;;;;;;3.10;2.00;;;;;;;19.21;88.58;100100.69;4990050;28;20088;-83
2022/06/16 00:49:38;;;;;;;2.80;1.55;;;;;;;19.11;87.81;100086.00;4990185;28;20038;-84
2022/06/16 00:52:11;;;;;;;4.22;1.92;;;;;;;19.36;87.20;100117.84;4988981;28;20497;-84
2022/06/16 00:54:43;;;;;;;1.23;0.90;;;;;;;19.47;85.89;100098.66;4989425;28;20045;-84
2022/06/16 00:57:14;;;;;;;2.47;1.63;;;;;;;19.37;86.98;100111.59;4990059;28;20168;-84
2022/06/16 00:59:41;;;;;;;2.45;1.75;;;;;;;19.29;86.56;100086.97;4989447;28;20030;-84
2022/06/16 01:02:08;;;;;;;1.85;1.52;;;;;;;19.31;86.39;100087.78;4989741;28;20038;-84
2022/06/16 01:04:53;;;;;;;4.38;1.98;;;;;;;19.43;85.90;100081.00;4989982;28;20542;-84
2022/06/16 01:07:30;;;;;;;2.45;1.88;;;;;;;19.30;87.52;100104.75;4989511;28;20144;-84
2022/06/16 01:09:57;;;;;;;2.92;1.67;;;;;;;19.09;87.86;100082.50;4989473;28;20030;-84
2022/06/16 01:15:49;;;;;;;3.50;1.83;;;;;;;19.09;88.25;100080.72;4989317;28;20057;-84
2022/06/16 01:18:21;;;;;;;1.70;1.48;;;;;;;19.25;87.35;100088.06;4987779;28;20130;-83
2022/06/16 01:21:21;;;;;;;2.30;2.10;;;;;;;19.27;86.67;100095.06;4988573;28;20034;-84
2022/06/16 01:24:14;;;;;;;2.50;1.23;;;;;;;19.31;87.15;100110.03;4980185;28;20571;-84
2022/06/16 01:26:49;;;;;;;3.30;2.28;;;;;;;19.42;86.46;100100.69;4987962;28;20030;-84
2022/06/16 01:29:53;;;;;;;2.90;1.60;;;;;;;19.42;84.78;100085.47;4988175;28;20386;-84
2022/06/16 01:32:35;;;;;;;2.25;1.13;;;;;;;19.52;85.68;100110.00;4970075;28;20035;-84
2022/06/16 01:35:22;;;;;;;1.60;1.25;;;;;;;19.74;84.50;100120.59;4988353;28;20058;-84
2022/06/16 01:37:56;;;;;;;2.80;1.83;;;;;;;19.80;83.91;100115.00;4999560;28;20049;-85
2022/06/16 01:40:53;;;;;;;3.13;1.60;;;;;;;19.76;82.86;100093.78;4997716;28;20034;-84
2022/06/16 01:43:29;;;;;;;6.43;2.20;;;;;;;19.67;83.44;100113.78;4983886;28;20049;-83
2022/06/16 01:46:00;;;;;;;4.28;2.60;;;;;;;19.78;82.98;100116.88;4988740;28;20120;-83
2022/06/16 01:48:28;;;;;;;1.70;1.20;;;;;;;19.59;83.18;100090.06;4988822;28;20092;-83
2022/06/16 01:51:06;;;;;;;2.97;1.80;;;;;;;19.76;83.29;100105.34;4994893;28;20034;-83
2022/06/16 01:53:48;;;;;;;9.38;2.58;;;;;;;19.96;82.05;100112.47;4994109;28;20070;-83
2022/06/16 01:56:23;;;;;;;2.45;1.92;;;;;;;20.01;81.59;100104.22;5003419;28;20512;-83
2022/06/16 01:59:00;;;;;;;2.58;1.80;;;;;;;19.95;80.98;100086.63;5007884;28;20045;-83
2022/06/16 02:01:30;;;;;;;2.58;1.70;;;;;;;20.09;80.80;100115.41;4989397;28;20069;-83
2022/06/16 02:04:12;;;;;;;2.90;1.92;;;;;;;19.86;81.22;100092.41;4988569;28;20101;-83
2022/06/16 02:06:41;;;;;;;2.67;1.60;;;;;;;20.04;81.14;100109.44;4986792;28;20038;-83
2022/06/16 02:09:12;;;;;;;3.83;1.92;;;;;;;20.00;81.21;100102.47;4991115;28;20044;-81
2022/06/16 02:11:38;;;;;;;2.03;1.77;;;;;;;19.95;81.55;100109.84;5004930;28;20520;-81
2022/06/16 02:14:21;;;;;;;2.83;1.83;;;;;;;19.95;81.28;100105.38;5007614;28;20119;-83
2022/06/16 02:16:48;;;;;;;2.53;1.83;;;;;;;19.93;81.52;100109.94;5007231;28;20037;-83
2022/06/16 02:19:18;;;;;;;3.65;2.08;;;;;;;20.04;80.73;100115.63;5000995;28;20046;-83
2022/06/16 02:21:47;;;;;;;2.55;1.15;;;;;;;19.99;80.45;100108.78;4995655;28;20837;-84
2022/06/16 02:24:16;;;;;;;2.85;1.60;;;;;;;20.07;80.53;100117.31;4988377;28;20038;-83
2022/06/16 02:26:42;;;;;;;4.85;2.10;;;;;;;19.71;81.09;100109.16;4987206;28;20500;-84
2022/06/16 02:29:30;;;;;;;2.10;1.40;;;;;;;19.93;80.23;100128.66;4992698;28;20034;-83
2022/06/16 02:32:29;;;;;;;2.75;1.77;;;;;;;20.00;80.54;100126.56;4984132;28;20038;-83
2022/06/16 02:35:16;;;;;;;2.75;1.63;;;;;;;20.02;80.63;100132.75;4999257;28;20500;-84
2022/06/16 02:38:08;;;;;;;2.03;1.48;;;;;;;20.13;79.69;100132.22;4967958;28;20460;-84
2022/06/16 02:40:40;;;;;;;3.25;1.80;;;;;;;19.98;80.10;100113.25;4986120;28;20057;-83
2022/06/16 02:43:25;;;;;;;3.00;1.80;;;;;;;20.08;80.23;100131.56;4987774;28;20088;-84
2022/06/16 02:46:07;;;;;;;1.77;1.63;;;;;;;20.09;80.24;100134.16;4986487;28;20085;-84
2022/06/16 02:48:36;;;;;;;6.80;2.40;;;;;;;20.10;80.23;100137.72;4988037;28;20111;-84
2022/06/16 02:51:48;;;;;;;5.25;2.25;;;;;;;20.14;80.05;100136.63;4990632;28;20046;-84
2022/06/16 02:54:32;;;;;;;5.32;2.47;;;;;;;20.04;80.09;100137.06;4986833;28;20096;-84
2022/06/16 02:57:09;;;;;;;3.65;2.53;;;;;;;20.10;80.83;100143.94;4979956;28;20040;-84
2022/06/16 02:59:55;;;;;;;3.60;2.33;;;;;;;20.10;80.04;100138.59;5004193;28;20048;-84
2022/06/16 03:02:24;;;;;;;6.70;2.65;;;;;;;19.90;80.51;100104.72;4986631;28;20478;-83
2022/06/16 03:04:52;;;;;;;1.95;1.48;;;;;;;19.97;80.77;100132.06;4987168;28;20038;-83
2022/06/16 03:07:18;;;;;;;3.35;2.25;;;;;;;19.62;82.74;100130.06;4993799;28;20531;-81
2022/06/16 03:09:44;;;;;;;3.70;1.92;;;;;;;19.60;83.68;100136.41;5003875;28;20034;-81
2022/06/16 03:12:12;;;;;;;3.60;2.00;;;;;;;19.53;84.17;100118.91;4987806;28;20065;-82
2022/06/16 03:14:38;;;;;;;3.30;1.95;;;;;;;19.46;84.72;100113.84;5004610;28;20038;-84
2022/06/16 03:17:06;;;;;;;3.53;1.90;;;;;;;19.68;84.05;100137.81;4989824;28;20062;-84
2022/06/16 03:19:32;;;;;;;5.47;2.50;;;;;;;19.82;82.48;100133.66;4986504;28;20063;-84
2022/06/16 03:21:58;;;;;;;5.93;3.58;;;;;;;19.92;82.62;100143.00;4987298;28;20062;-84
2022/06/16 03:24:23;;;;;;;2.00;1.73;;;;;;;19.88;82.32;100151.22;4987317;28;20036;-85
2022/06/16 03:26:49;;;;;;;4.40;2.45;;;;;;;19.89;81.73;100145.81;5007242;28;20081;-87
2022/06/16 03:29:15;;;;;;;4.88;3.15;;;;;;;19.62;81.82;100110.47;4988964;28;20424;-86
2022/06/16 03:31:40;;;;;;;3.83;2.28;;;;;;;19.55;82.50;100117.88;5007192;28;20038;-85
2022/06/16 03:34:06;;;;;;;3.80;2.08;;;;;;;19.53;83.01;100138.50;5004945;28;20064;-85
2022/06/16 03:36:33;;;;;;;5.40;3.80;;;;;;;19.48;82.95;100128.00;4994040;28;20093;-84
2022/06/16 03:39:00;;;;;;;3.75;2.45;;;;;;;19.39;83.28;100120.41;4986710;28;20847;-86
2022/06/16 03:41:25;;;;;;;3.25;1.40;;;;;;;19.72;82.82;100145.69;4987329;28;20558;-86
2022/06/16 03:43:51;;;;;;;2.92;1.63;;;;;;;19.74;81.62;100122.41;4987461;28;20050;-85
2022/06/16 03:46:17;;;;;;;4.20;2.67;;;;;;;19.90;81.94;100146.69;4994981;28;20516;-85
2022/06/16 03:48:43;;;;;;;2.90;1.75;;;;;;;19.97;81.45;100150.81;5007101;28;20042;-84
2022/06/16 03:51:09;;;;;;;3.38;1.65;;;;;;;19.87;81.96;100144.16;5006173;28;20478;-86
2022/06/16 03:53:38;;;;;;;5.05;2.65;;;;;;;20.07;81.69;100153.94;4995088;28;20068;-84
2022/06/16 03:56:04;;;;;;;6.63;3.25;;;;;;;20.22;80.60;100142.50;4994029;28;20034;-85
2022/06/16 03:58:29;;;;;;;3.45;2.17;;;;;;;20.14;81.13;100133.94;5005089;28;20038;-84
2022/06/16 04:00:55;;;;;;;5.80;3.05;;;;;;;20.00;81.05;100123.88;4968531;28;20027;-85
2022/06/16 04:06:04;;;;;;;3.65;1.83;;;;;;;19.95;82.41;100139.31;4987135;28;20559;-85
2022/06/16 04:08:30;;;;;;;4.93;2.20;;;;;;;20.05;81.97;100132.59;5008219;28;20113;-85
2022/06/16 04:10:56;;;;;;;3.50;2.47;;;;;;;20.33;81.19;100158.06;5002238;28;20037;-85
2022/06/16 04:13:22;;;;;;;4.40;2.65;;;;;;;20.34;81.07;100127.63;5004235;28;20038;-86
2022/06/16 04:15:49;;;;;;;5.40;3.40;;;;;;;20.48;80.69;100143.91;5009942;28;20030;-85
2022/06/16 04:18:18;;;;;;;5.88;3.65;;;;;;;20.48;80.66;100151.97;5009734;28;20518;-86
2022/06/16 04:20:46;;;;;;;8.00;3.80;;;;;;;20.52;80.94;100164.25;5004721;28;20064;-86
2022/06/16 04:23:12;;;;;;;6.63;3.97;;;;;;;20.47;80.67;100155.56;4999738;28;20037;-85
2022/06/16 04:25:38;;;;;;;5.88;4.45;;;;;;;20.48;80.64;100146.59;5005440;28;20416;-86
2022/06/16 04:28:06;;;;;;;9.77;5.15;;;;;;;20.65;80.37;100148.47;4994775;28;20497;-86
2022/06/16 04:30:31;;;;;;;8.32;4.72;;;;;;;20.60;80.28;100158.50;4989984;28;20532;-86
2022/06/16 04:32:58;;;;;;;8.90;4.40;;;;;;;20.70;79.86;100162.50;4999570;28;20116;-86
2022/06/16 04:35:25;;;;;;;8.45;4.63;;;;;;;20.53;79.96;100143.69;5009734;28;20065;-85
2022/06/16 04:37:51;;;;;;;11.23;6.60;;;;;;;20.72;79.95;100167.78;5008169;28;20034;-86
2022/06/16 04:40:17;;;;;;;7.90;4.55;;;;;;;20.70;80.36;100173.22;5010022;28;20080;-86
2022/06/16 04:42:42;;;;;;;8.38;4.63;;;;;;;20.51;80.35;100143.75;5003399;28;20542;-87
2022/06/16 04:45:10;;;;;;;10.10;5.13;;;;;;;20.46;80.55;100147.59;4990039;28;20062;-88
2022/06/16 04:47:39;;;;;;;15.18;6.68;;;;;;;20.58;79.19;100163.06;4983473;28;20473;-86
2022/06/16 04:50:06;;;;;;;7.55;5.00;;;;;;;20.64;79.88;100178.00;4975983;28;20105;-86
2022/06/16 04:52:32;;;;;;;9.57;6.07;;;;;;;20.46;79.96;100144.94;4988666;28;20512;-86
2022/06/16 04:54:57;;;;;;;10.40;5.03;;;;;;;20.82;78.96;100173.56;4990184;28;20026;-86
2022/06/16 04:57:24;;;;;;;16.50;6.32;;;;;;;20.76;78.65;100147.94;4990134;28;20386;-86
2022/06/16 04:59:49;;;;;;;12.70;6.72;;;;;;;20.60;78.97;100139.75;4997144;28;20088;-86
2022/06/16 05:02:15;;;;;;;9.43;5.45;;;;;;;20.83;78.96;100181.53;4992802;28;20029;-86
2022/06/16 05:04:42;;;;;;;10.85;5.15;;;;;;;20.81;78.86;100166.47;4993601;28;20120;-88
2022/06/16 05:07:08;;;;;;;8.70;4.70;;;;;;;20.64;79.09;100133.28;4987408;28;20116;-89
2022/06/16 05:09:34;;;;;;;8.43;4.32;;;;;;;20.77;78.30;100149.66;4986588;28;20105;-89
2022/06/16 05:12:00;;;;;;;13.18;4.93;;;;;;;21.03;78.44;100179.66;4994940;28;20498;-85
2022/06/16 05:14:25;;;;;;;6.30;4.00;;;;;;;20.89;78.31;100161.59;4991375;28;20031;-87
2022/06/16 05:16:51;;;;;;;6.82;4.70;;;;;;;20.82;79.20;100177.13;4992935;28;20084;-86
2022/06/16 05:19:16;;;;;;;15.18;7.30;;;;;;;20.67;79.46;100159.13;5008211;28;20424;-85
2022/06/16 05:21:42;;;;;;;8.55;4.57;;;;;;;20.96;77.79;100163.03;4976683;28;20556;-86
2022/06/16 05:24:08;;;;;;;6.18;3.75;;;;;;;21.08;77.50;100148.09;4998896;28;20044;-85
2022/06/16 05:26:34;;;;;;;10.88;5.85;;;;;;;21.07;77.37;100165.16;4998282;28;20069;-86
2022/06/16 05:29:00;;;;;;;9.98;5.65;;;;;;;21.40;76.46;100162.53;5001287;28;20068;-87
2022/06/16 05:31:25;;;;;;;9.40;5.22;;;;;;;21.57;75.29;100172.41;4992002;28;20053;-86
2022/06/16 05:33:51;;;;;;;14.00;4.82;;;;;;;21.60;74.61;100145.41;4988662;28;20038;-86
2022/06/16 05:36:18;;;;;;;16.15;7.05;;;;;;;21.85;74.90;100148.56;5006291;28;20500;-86
2022/06/16 05:38:44;;;;;;;8.82;5.90;;;;;;;22.09;73.02;100149.03;5007828;28;20133;-87
2022/06/16 05:41:13;;;;;;;12.07;4.05;;;;;;;22.07;73.16;100157.16;5008324;28;20112;-86
2022/06/16 05:43:40;;;;;;;12.95;6.55;;;;;;;22.10;71.94;100148.06;5007937;28;20871;-85
2022/06/16 05:46:07;;;;;;;8.60;4.75;;;;;;;22.45;71.54;100158.69;5008374;28;20018;-85
2022/06/16 05:48:34;;;;;;;14.25;6.65;;;;;;;22.67;70.07;100169.06;5006804;28;20080;-86
2022/06/16 05:51:05;;;;;;;10.25;5.45;;;;;;;23.03;69.06;100163.38;5007845;28;20096;-85
2022/06/16 05:53:30;;;;;;;10.80;6.80;;;;;;;23.04;68.09;100172.28;5007545;28;20026;-85
2022/06/16 05:55:56;;;;;;;12.27;5.72;;;;;;;23.05;66.95;100150.69;5007727;28;20423;-85
2022/06/16 05:58:21;;;;;;;8.00;4.88;;;;;;;23.08;67.12;100155.03;4988626;28;20034;-84
2022/06/16 06:00:47;;;;;;;6.07;3.75;;;;;;;23.41;66.51;100162.91;4997061;28;20073;-84
2022/06/16 06:03:12;;;;;;;7.93;5.10;;;;;;;23.32;65.27;100174.22;5008158;28;20431;-84
2022/06/16 06:05:38;;;;;;;10.07;4.18;;;;;;;23.04;65.42;100135.50;5007352;28;20045;-84
2022/06/16 06:16:25;;;;;;;6.53;3.35;;;;;;;23.85;63.96;100168.34;5007448;28;20048;-84
2022/06/16 06:18:55;;;;;;;7.38;4.13;;;;;;;23.76;63.85;100165.25;5005576;28;20121;-84
2022/06/16 06:21:58;;;;;;;6.78;4.75;;;;;;;23.85;63.99;100165.66;5006910;28;20041;-84
2022/06/16 06:24:07;;;;;;;6.95;4.18;;;;;;;23.75;63.81;100159.94;5004238;28;20095;-83
2022/06/16 06:26:33;;;;;;;10.68;4.90;;;;;;;23.69;64.34;100171.09;4989163;28;20038;-84
2022/06/16 06:28:58;;;;;;;6.40;3.53;;;;;;;23.40;64.69;100174.63;5004840;28;20037;-83
2022/06/16 06:31:24;;;;;;;12.70;3.65;;;;;;;24.04;63.66;100181.53;5005584;28;20034;-83
2022/06/16 06:33:49;;;;;;;8.10;3.95;;;;;;;24.25;62.49;100184.66;5005959;28;20108;-83
2022/06/16 06:36:15;;;;;;;7.10;3.95;;;;;;;24.30;60.83;100174.47;4988235;28;20057;-83
2022/06/16 06:38:40;;;;;;;8.02;4.28;;;;;;;24.52;61.28;100173.06;4987385;28;20026;-83
2022/06/16 06:41:07;;;;;;;7.60;4.85;;;;;;;24.66;60.59;100171.22;4987023;28;20505;-83
2022/06/16 06:43:32;;;;;;;11.80;5.30;;;;;;;24.86;60.18;100176.25;4987628;28;20031;-84
2022/06/16 06:45:58;;;;;;;9.43;5.65;;;;;;;24.76;60.74;100167.91;4987383;28;20041;-83
2022/06/16 06:48:23;;;;;;;17.40;7.03;;;;;;;24.57;60.59;100169.13;4987743;28;20044;-83
2022/06/16 06:50:49;;;;;;;9.57;6.72;;;;;;;24.75;62.73;100169.75;4987034;28;20035;-84
2022/06/16 06:53:14;;;;;;;12.15;8.90;;;;;;;24.97;59.91;100160.22;4987214;28;20034;-84
2022/06/16 06:55:46;;;;;;;11.15;8.60;;;;;;;25.54;60.61;100167.13;4987169;28;20045;-84
2022/06/16 06:58:18;;;;;;;10.18;6.75;;;;;;;25.63;57.44;100165.63;4987350;28;20419;-84
2022/06/16 07:00:43;;;;;;;9.90;6.72;;;;;;;25.27;60.27;100173.44;4986903;28;20045;-85
2022/06/16 07:03:10;;;;;;;7.63;4.70;;;;;;;25.59;56.03;100170.34;4987926;28;20489;-84
2022/06/16 07:05:36;;;;;;;9.10;4.88;;;;;;;25.45;58.79;100154.28;4986179;28;20041;-83
2022/06/16 07:08:01;;;;;;;8.90;5.47;;;;;;;25.99;56.42;100154.03;4987602;28;20096;-84
2022/06/16 07:10:27;;;;;;;7.95;5.93;;;;;;;26.31;55.34;100172.47;4986644;28;20452;-84
2022/06/16 07:12:52;;;;;;;10.10;6.03;;;;;;;26.77;53.24;100166.38;4987485;28;20038;-83
2022/06/16 07:15:18;;;;;;;11.13;6.90;;;;;;;26.70;53.66;100150.72;4987188;28;20058;-83
2022/06/16 07:17:44;;;;;;;11.20;6.00;;;;;;;27.08;52.77;100160.44;4987105;28;20081;-82
2022/06/16 07:20:13;;;;;;;9.70;6.93;;;;;;;26.91;51.60;100154.50;4986788;28;20457;-83
2022/06/16 07:22:38;;;;;;;9.60;6.63;;;;;;;26.98;51.22;100163.00;4986293;28;20034;-84
2022/06/16 07:25:04;;;;;;;7.80;5.10;;;;;;;26.96;52.98;100163.13;4986930;28;20049;-84
2022/06/16 07:27:30;;;;;;;8.68;4.95;;;;;;;27.26;51.83;100145.50;4987638;28;20034;-84
2022/06/16 07:29:55;;;;;;;8.80;5.13;;;;;;;27.33;49.52;100124.25;4986632;28;20030;-84
2022/06/16 07:32:21;;;;;;;5.63;3.90;;;;;;;27.04;50.88;100151.72;4987341;28;20116;-84
2022/06/16 07:34:48;;;;;;;8.15;4.65;;;;;;;27.20;50.26;100155.94;4992875;28;20133;-84
2022/06/16 07:37:14;;;;;;;6.05;4.30;;;;;;;27.86;48.92;100145.34;5009401;28;20839;-84
2022/06/16 07:39:39;;;;;;;4.60;3.45;;;;;;;27.48;48.80;100130.28;5011319;28;20041;-84
2022/06/16 07:42:05;;;;;;;6.22;3.83;;;;;;;27.05;50.50;100144.44;5010407;28;20112;-84
2022/06/16 07:44:31;;;;;;;19.23;4.65;;;;;;;27.56;47.90;100122.44;5010554;28;20419;-84
2022/06/16 07:46:57;;;;;;;6.05;3.85;;;;;;;28.14;49.20;100133.16;5010548;28;20030;-84
2022/06/16 07:49:26;;;;;;;5.43;3.55;;;;;;;28.14;47.23;100140.44;5010261;28;20383;-85
2022/06/16 07:51:52;;;;;;;7.03;4.78;;;;;;;28.32;47.11;100155.19;5010820;28;20083;-84
2022/06/16 07:54:18;;;;;;;5.22;3.55;;;;;;;28.64;47.91;100138.13;5010029;28;20045;-85
2022/06/16 07:56:45;;;;;;;5.82;3.90;;;;;;;28.89;47.68;100141.50;5011115;28;20033;-84
2022/06/16 07:59:12;;;;;;;5.68;4.40;;;;;;;28.92;47.48;100136.66;5010884;28;20120;-84
2022/06/16 08:01:37;;;;;;;6.00;4.55;;;;;;;28.06;48.14;100135.63;5010328;28;20463;-84
2022/06/16 08:04:05;;;;;;;5.07;3.92;;;;;;;28.31;48.61;100147.19;5010690;28;20050;-84
2022/06/16 08:06:32;;;;;;;5.25;3.83;;;;;;;28.13;48.74;100144.13;5010121;28;20029;-84
2022/06/16 08:08:58;;;;;;;7.60;2.90;;;;;;;28.19;48.23;100140.91;5009769;28;20116;-84
2022/06/16 08:14:07;;;;;;;6.70;4.45;;;;;;;28.70;46.46;100131.31;5009480;28;20037;-84
2022/06/16 08:16:33;;;;;;;4.70;3.13;;;;;;;28.86;45.49;100145.31;5010465;28;20033;-84
2022/06/16 08:19:00;;;;;;;6.30;4.30;;;;;;;28.09;45.81;100142.69;5010323;28;20419;-85
2022/06/16 08:21:26;;;;;;;5.28;3.20;;;;;;;28.33;47.66;100159.66;5010168;28;20041;-84
2022/06/16 08:23:52;;;;;;;11.77;3.97;;;;;;;28.48;45.51;100143.09;5010093;28;20038;-85
2022/06/16 08:26:17;;;;;;;5.57;4.88;;;;;;;28.63;46.77;100158.13;5009294;28;20030;-85
2022/06/16 08:28:43;;;;;;;6.18;4.50;;;;;;;28.85;45.40;100164.44;5009403;28;20026;-85
2022/06/16 08:31:09;;;;;;;5.38;4.05;;;;;;;29.48;42.53;100141.94;5009469;28;20415;-84
2022/06/16 08:33:36;;;;;;;10.20;3.92;;;;;;;29.82;42.38;100153.44;5008800;28;20447;-84
2022/06/16 08:36:03;;;;;;;4.78;3.45;;;;;;;30.43;41.65;100141.66;5009581;28;20132;-83
2022/06/16 08:38:29;;;;;;;5.15;3.83;;;;;;;30.47;40.75;100131.34;5009166;28;20033;-84
2022/06/16 08:41:19;;;;;;;4.72;3.50;;;;;;;29.97;42.85;100143.06;5009598;28;20473;-85
2022/06/16 08:44:00;;;;;;;3.92;3.08;;;;;;;29.57;42.63;100149.28;5009120;28;20052;-84
2022/06/16 08:46:35;;;;;;;5.90;3.55;;;;;;;29.39;47.84;100149.03;5009573;28;20029;-84
2022/06/16 08:49:01;;;;;;;;;;;;;;;28.07;50.31;100141.91;4991337;28;20439;-84
2022/06/16 08:51:48;;;;;;;3.78;3.33;;;;;;;28.90;47.65;100140.47;5009683;28;19917;-83
2022/06/16 08:54:42;;;;;;;6.88;4.00;;;;;;;29.93;45.23;100137.00;5009018;28;20125;-84
2022/06/16 08:57:35;;;;;;;7.18;3.78;;;;;;;30.89;40.69;100140.09;5007169;28;20428;-83
2022/06/16 09:00:08;;;;;;;6.65;4.53;;;;;;;30.89;41.65;100112.88;5009283;28;20025;-83
2022/06/16 09:03:16;;;;;;;5.13;2.92;;;;;;;30.49;39.54;100127.47;5009324;28;20542;-83
2022/06/16 09:05:42;;;;;;;4.70;3.17;;;;;;;30.97;40.25;100124.88;4989357;28;20050;-84
2022/06/16 09:08:23;;;;;;;5.05;3.38;;;;;;;31.17;41.51;100126.63;5009436;28;20037;-84
2022/06/16 09:10:59;;;;;;;5.50;3.65;;;;;;;30.91;42.28;100103.69;5009090;28;20560;-84
2022/06/16 09:13:36;;;;;;;7.05;4.32;;;;;;;30.68;40.58;100114.88;5009364;28;20032;-84
2022/06/16 09:16:01;;;;;;;4.68;3.58;;;;;;;30.58;40.17;100105.84;5008685;28;20048;-85
2022/06/16 09:18:59;;;;;;;5.35;3.58;;;;;;;30.60;39.57;100107.44;5009178;28;20791;-84
2022/06/16 09:21:40;;;;;;;4.93;3.65;;;;;;;30.37;40.47;100123.13;4991040;28;20404;-84
2022/06/16 09:24:11;;;;;;;6.22;3.75;;;;;;;29.65;42.91;100112.25;5009061;28;20113;-84
2022/06/16 09:26:46;;;;;;;6.97;4.45;;;;;;;30.25;41.00;100097.03;5009116;28;20033;-82
2022/06/16 09:29:24;;;;;;;4.13;2.88;;;;;;;30.31;39.92;100113.66;5009104;28;20087;-84
2022/06/16 09:32:08;;;;;;;6.10;3.28;;;;;;;30.70;40.84;100099.25;5009386;28;20120;-83
2022/06/16 09:34:55;;;;;;;5.93;3.70;;;;;;;31.03;40.90;100102.56;5007407;28;20092;-84
2022/06/16 09:37:48;;;;;;;5.70;3.25;;;;;;;30.23;41.11;100099.03;5008577;28;20057;-83
2022/06/16 09:40:38;;;;;;;5.93;4.15;;;;;;;30.04;42.43;100086.25;5003777;28;20053;-83
2022/06/16 09:43:29;;;;;;;7.05;4.82;;;;;;;30.53;42.33;100101.69;5007913;28;20107;-82
2022/06/16 09:46:03;;;;;;;140.00;94.82;;;;;;;30.27;41.82;100079.56;5008704;28;20081;-83
2022/06/16 09:48:37;;;;;;;880.03;498.17;;;;;;;30.27;45.20;100086.88;5008358;28;20029;-82
2022/06/16 09:51:17;;;;;;;279.27;156.32;;;;;;;30.43;40.98;100087.22;5007874;28;20119;-82
2022/06/16 09:54:01;;;;;;;743.53;469.73;;;;;;;30.75;41.45;100091.50;5008610;28;20030;-83
2022/06/16 09:56:57;;;;;;;108.95;77.03;;;;;;;30.07;40.23;100073.22;5007795;28;20022;-82
2022/06/16 09:59:28;;;;;;;6.05;3.72;;;;;;;29.40;44.85;100094.56;4994345;28;20068;-84
2022/06/16 10:02:04;;;;;;;13.43;8.38;;;;;;;29.72;41.16;100069.09;5007586;28;20026;-84
2022/06/16 10:04:30;;;;;;;583.45;443.70;;;;;;;30.31;42.00;100082.88;5008330;28;20096;-83
2022/06/16 10:07:29;;;;;;;47.03;42.63;;;;;;;30.13;41.49;100078.09;5007653;28;20037;-84
2022/06/16 10:09:59;;;;;;;13.35;12.05;;;;;;;29.79;42.52;100083.00;5007749;28;20029;-84
2022/06/16 10:12:46;;;;;;;56.38;41.35;;;;;;;28.96;43.72;100074.81;5008040;28;20034;-83
2022/06/16 10:15:22;;;;;;;6.57;3.67;;;;;;;28.72;43.91;100075.06;5007481;28;20030;-83
2022/06/16 10:17:51;;;;;;;4.78;3.50;;;;;;;29.18;42.66;100073.81;5008136;28;20084;-82
2022/06/16 10:20:19;;;;;;;4.63;3.28;;;;;;;29.85;41.66;100060.72;5004363;28;20527;-83
2022/06/16 10:22:56;;;;;;;4.15;3.25;;;;;;;30.22;42.32;100064.69;4988092;28;20467;-84
2022/06/16 10:25:35;;;;;;;6.05;3.30;;;;;;;30.63;39.24;100060.88;4988124;28;20031;-82
2022/06/16 10:28:10;;;;;;;5.10;2.88;;;;;;;30.42;39.70;100039.22;4988148;28;20085;-83
2022/06/16 10:30:39;;;;;;;5.63;3.83;;;;;;;30.30;41.56;100049.34;4988262;28;20564;-83
2022/06/16 10:33:16;;;;;;;9.85;3.63;;;;;;;30.30;41.63;100040.34;4970712;28;20042;-84
2022/06/16 10:35:49;;;;;;;3.92;2.78;;;;;;;30.59;39.78;100051.25;5007442;28;20050;-81
2022/06/16 10:38:41;;;;;;;4.97;3.40;;;;;;;30.97;38.95;100045.91;4989729;28;20408;-82
2022/06/16 10:41:36;;;;;;;5.03;3.38;;;;;;;31.05;39.88;100035.19;5007505;28;20092;-82
2022/06/16 10:44:06;;;;;;;4.70;2.88;;;;;;;30.87;40.23;100037.75;5006147;28;20050;-82
2022/06/16 10:46:48;;;;;;;3.70;2.72;;;;;;;30.75;39.90;100011.72;5007371;28;20114;-83
2022/06/16 10:49:19;;;;;;;3.65;3.03;;;;;;;31.14;39.01;100028.88;5007458;28;20397;-81
2022/06/16 10:51:59;;;;;;;5.53;3.95;;;;;;;31.33;39.72;100021.63;5006255;28;20037;-83
2022/06/16 10:54:32;;;;;;;3.90;2.95;;;;;;;31.23;38.15;100013.47;5007733;28;20041;-81
2022/06/16 10:57:07;;;;;;;5.18;3.47;;;;;;;30.51;38.98;100027.50;5007085;28;20034;-82
2022/06/16 10:59:37;;;;;;;4.40;2.67;;;;;;;30.48;39.38;100040.53;5007542;28;20045;-82
2022/06/16 11:02:17;;;;;;;4.68;2.75;;;;;;;30.30;37.91;100018.56;5006461;28;20431;-81
2022/06/16 11:04:43;;;;;;;4.20;3.38;;;;;;;30.72;36.36;100010.13;5007376;28;20034;-82
2022/06/16 11:07:17;;;;;;;2.47;2.22;;;;;;;30.97;36.86;100018.66;5006726;28;20038;-81
2022/06/16 11:09:45;;;;;;;3.33;2.05;;;;;;;30.59;37.41;100010.44;5007089;28;20057;-82
2022/06/16 11:12:23;;;;;;;3.25;2.58;;;;;;;30.60;39.43;99997.69;5006489;28;20034;-82
2022/06/16 11:15:03;;;;;;;2.25;1.80;;;;;;;30.11;39.25;99998.53;5006805;28;20100;-81
2022/06/16 11:17:36;;;;;;;3.60;2.67;;;;;;;29.94;38.56;100007.38;5007494;28;20500;-82
2022/06/16 11:20:16;;;;;;;2.55;2.00;;;;;;;30.28;38.13;100010.56;5006449;28;20060;-82
2022/06/16 11:22:47;;;;;;;3.38;2.42;;;;;;;30.30;40.09;99972.31;5007305;28;20034;-82
2022/06/16 11:25:23;;;;;;;2.95;2.35;;;;;;;30.44;37.67;100001.00;5006381;28;20038;-83
2022/06/16 11:28:01;;;;;;;4.47;2.72;;;;;;;30.85;38.64;99980.72;5007394;28;20033;-83
2022/06/16 11:30:29;;;;;;;2.90;2.15;;;;;;;30.91;38.59;99978.41;5007054;28;20459;-84
2022/06/16 11:32:54;;;;;;;2.45;1.92;;;;;;;30.52;37.93;99993.84;5007072;28;20520;-83
2022/06/16 11:35:32;;;;;;;2.35;1.90;;;;;;;30.13;37.66;99974.75;5005559;28;20088;-83
2022/06/16 11:38:01;;;;;;;3.58;2.67;;;;;;;30.21;38.02;99978.63;4988806;28;20444;-85
2022/06/16 11:40:38;;;;;;;2.72;2.13;;;;;;;30.46;36.99;99961.75;5006757;28;20099;-84
2022/06/16 11:43:27;;;;;;;4.35;2.50;;;;;;;30.96;36.25;99976.97;5006431;28;20076;-84
2022/06/16 11:45:59;;;;;;;2.08;1.75;;;;;;;30.82;35.16;99963.84;5006530;28;20038;-84
2022/06/16 11:48:33;;;;;;;2.75;1.83;;;;;;;30.91;36.37;99982.03;5006842;28;20100;-85
2022/06/16 11:51:12;;;;;;;2.72;1.85;;;;;;;30.78;35.85;99970.56;5005784;28;20040;-85
2022/06/16 11:54:08;;;;;;;2.92;2.25;;;;;;;31.39;34.81;99982.88;5006928;28;20072;-84
2022/06/16 11:56:57;;;;;;;2.28;1.48;;;;;;;30.74;36.15;99960.97;5006210;28;20550;-85
2022/06/16 12:00:04;;;;;;;3.25;1.83;;;;;;;30.63;36.15;99967.44;5006023;28;20034;-85
2022/06/16 12:02:39;;;;;;;2.53;2.00;;;;;;;31.00;37.19;99967.53;5001091;28;20133;-84